Time;durP1;ratioP1;P1;durP2;ratioP2;P2;SDS_P1;SDS_P2;PMS_P1;PMS_P2;Temp;Humidity;BMP_temperature;BMP_pressure;BME280_temperature;BME280_humidity;BME280_pressure;Samples;Min_cycle;Max_cycle;Signal;HPM_P1;HPM_P2
2023/06/01 00:01:24;;;;;;;36.08;12.43;;;;;;;14.51;100.00;98683.22;4892403;29;20112;-95
2023/06/01 00:03:51;;;;;;;28.30;10.70;;;;;;;14.61;100.00;98696.22;4893596;29;20075;-95
2023/06/01 00:06:17;;;;;;;30.85;11.25;;;;;;;14.63;100.00;98699.69;4894330;29;20502;-96
2023/06/01 00:08:44;;;;;;;28.98;11.05;;;;;;;14.60;100.00;98676.63;4894607;29;20142;-96
2023/06/01 00:11:11;;;;;;;33.05;11.50;;;;;;;14.71;100.00;98684.19;4895001;29;20399;-96
2023/06/01 00:13:37;;;;;;;29.23;11.77;;;;;;;14.70;100.00;98686.00;4894419;29;20059;-96
2023/06/01 00:16:03;;;;;;;34.10;13.63;;;;;;;14.78;100.00;98690.97;4894748;29;20059;-95
2023/06/01 00:18:30;;;;;;;41.63;13.65;;;;;;;14.72;100.00;98683.22;4895738;29;20081;-93
2023/06/01 00:20:56;;;;;;;39.17;13.75;;;;;;;14.74;100.00;98692.06;4893070;29;20049;-95
2023/06/01 00:23:22;;;;;;;35.97;14.02;;;;;;;14.71;100.00;98687.72;4895227;29;20079;-95
2023/06/01 00:25:50;;;;;;;34.20;12.63;;;;;;;14.77;100.00;98691.94;4912780;29;20052;-96
2023/06/01 00:28:16;;;;;;;38.47;14.57;;;;;;;14.78;100.00;98682.94;4912618;29;20051;-96
2023/06/01 00:30:42;;;;;;;33.97;14.07;;;;;;;14.86;100.00;98682.63;4913350;29;20039;-95
2023/06/01 00:33:08;;;;;;;35.75;13.95;;;;;;;14.77;100.00;98681.22;4910815;29;20048;-96
2023/06/01 00:35:34;;;;;;;38.72;13.43;;;;;;;14.75;100.00;98675.94;4909588;29;20048;-94
2023/06/01 00:38:00;;;;;;;37.53;13.40;;;;;;;14.79;100.00;98677.53;4911645;29;20051;-95
2023/06/01 00:40:26;;;;;;;38.40;12.60;;;;;;;14.81;100.00;98669.41;4911273;29;20537;-94
2023/06/01 00:42:54;;;;;;;34.42;12.40;;;;;;;14.81;100.00;98674.75;4912193;29;20052;-96
2023/06/01 00:45:20;;;;;;;26.83;11.15;;;;;;;14.80;100.00;98665.00;4912920;29;20103;-96
2023/06/01 00:47:46;;;;;;;32.75;11.40;;;;;;;14.85;100.00;98673.69;4913229;29;20071;-96
2023/06/01 00:50:13;;;;;;;28.40;11.07;;;;;;;14.84;100.00;98666.63;4912999;29;20049;-95
2023/06/01 00:52:40;;;;;;;29.58;10.98;;;;;;;14.79;100.00;98663.28;4913957;29;20082;-95
2023/06/01 00:55:07;;;;;;;25.63;10.18;;;;;;;14.84;100.00;98663.06;4912044;29;20060;-96
2023/06/01 00:57:33;;;;;;;26.75;11.07;;;;;;;14.79;100.00;98657.94;4913565;29;20052;-96
2023/06/01 01:00:08;;;;;;;28.77;11.23;;;;;;;14.79;100.00;98655.25;4912514;29;20143;-95
2023/06/01 01:02:37;;;;;;;22.50;10.10;;;;;;;14.88;100.00;98678.06;4914288;29;20046;-94
2023/06/01 01:05:09;;;;;;;28.30;11.27;;;;;;;14.78;100.00;98664.22;4912429;29;20052;-96
2023/06/01 01:07:51;;;;;;;36.75;11.90;;;;;;;14.76;100.00;98650.88;4913796;29;20124;-95
2023/06/01 01:10:25;;;;;;;24.20;10.68;;;;;;;14.83;100.00;98661.31;4912823;29;20067;-95
2023/06/01 01:13:00;;;;;;;26.48;9.70;;;;;;;14.79;100.00;98666.84;4912505;29;20529;-96
2023/06/01 01:15:35;;;;;;;27.58;10.18;;;;;;;14.66;100.00;98676.34;4912151;29;20544;-95
2023/06/01 01:18:05;;;;;;;31.38;10.52;;;;;;;14.49;100.00;98652.13;4913652;29;20498;-96
2023/06/01 01:20:37;;;;;;;24.85;10.10;;;;;;;14.42;100.00;98646.19;4913361;29;20064;-96
2023/06/01 01:23:11;;;;;;;25.45;10.55;;;;;;;14.34;100.00;98651.88;4912652;29;20479;-94
2023/06/01 01:26:02;;;;;;;24.45;9.60;;;;;;;14.28;100.00;98641.44;4912594;29;20120;-95
2023/06/01 01:28:42;;;;;;;21.80;9.18;;;;;;;14.26;100.00;98648.66;4913058;29;20080;-94
2023/06/01 01:31:11;;;;;;;32.15;11.55;;;;;;;14.19;100.00;98644.53;4910519;29;20041;-95
2023/06/01 01:33:38;;;;;;;;;;;;;;;14.41;100.00;98694.41;4914406;29;20063;-94
2023/06/01 01:36:06;;;;;;;24.48;10.23;;;;;;;14.12;100.00;98657.28;4915008;29;19951;-96
2023/06/01 01:38:34;;;;;;;22.23;8.90;;;;;;;14.25;100.00;98694.19;4914959;29;20055;-96
2023/06/01 01:41:00;;;;;;;22.85;10.05;;;;;;;14.03;100.00;98663.03;4915209;29;20099;-95
2023/06/01 01:43:27;;;;;;;25.58;9.93;;;;;;;13.92;100.00;98651.91;4914727;29;20059;-95
2023/06/01 01:45:59;;;;;;;25.15;9.93;;;;;;;14.04;100.00;98674.59;4914021;29;20151;-96
2023/06/01 01:48:31;;;;;;;26.38;10.95;;;;;;;13.88;100.00;98653.88;4914359;29;20052;-95
2023/06/01 01:51:01;;;;;;;25.73;10.70;;;;;;;14.07;100.00;98685.16;4913823;29;20142;-95
2023/06/01 01:53:30;;;;;;;29.67;11.02;;;;;;;13.88;100.00;98644.97;4931288;29;20371;-96
2023/06/01 01:55:58;;;;;;;26.13;9.73;;;;;;;13.82;100.00;98658.59;4914291;29;20051;-95
2023/06/01 01:58:26;;;;;;;40.10;11.32;;;;;;;13.80;100.00;98663.16;4914214;29;20142;-96
2023/06/01 02:00:55;;;;;;;32.50;10.53;;;;;;;13.67;100.00;98662.78;4913569;29;20051;-95
2023/06/01 02:03:21;;;;;;;25.63;10.27;;;;;;;13.68;100.00;98668.03;4912903;29;20297;-95
2023/06/01 02:05:48;;;;;;;23.77;10.02;;;;;;;13.59;100.00;98657.75;4914171;29;20546;-95
2023/06/01 02:08:14;;;;;;;24.40;10.60;;;;;;;13.53;100.00;98653.53;4913341;29;20422;-96
2023/06/01 02:10:40;;;;;;;21.50;8.90;;;;;;;13.53;100.00;98650.88;4912655;29;20059;-94
2023/06/01 02:13:06;;;;;;;25.15;9.85;;;;;;;13.48;100.00;98651.97;4913112;29;20048;-95
2023/06/01 02:15:32;;;;;;;25.88;10.00;;;;;;;13.51;100.00;98659.84;4913475;29;20044;-95
2023/06/01 02:18:00;;;;;;;25.90;9.40;;;;;;;13.44;100.00;98650.34;4913198;29;20062;-96
2023/06/01 02:20:26;;;;;;;28.55;10.35;;;;;;;13.45;100.00;98652.09;4912644;29;20091;-96
2023/06/01 02:22:52;;;;;;;19.88;8.88;;;;;;;13.49;100.00;98646.56;4912367;29;20056;-96
2023/06/01 02:25:19;;;;;;;21.60;9.80;;;;;;;13.43;100.00;98636.13;4912752;29;20056;-96
2023/06/01 02:27:45;;;;;;;22.25;9.73;;;;;;;13.43;100.00;98643.28;4912492;29;20052;-95
2023/06/01 02:30:12;;;;;;;22.73;9.80;;;;;;;13.61;100.00;98673.72;4912148;29;20055;-95
2023/06/01 02:32:38;;;;;;;23.40;10.52;;;;;;;13.52;100.00;98648.25;4911782;29;20092;-94
2023/06/01 02:35:06;;;;;;;23.13;9.77;;;;;;;13.55;100.00;98649.00;4912529;29;20051;-94
2023/06/01 02:37:32;;;;;;;20.70;9.18;;;;;;;13.46;100.00;98636.00;4911528;29;20143;-95
2023/06/01 02:39:58;;;;;;;22.20;10.18;;;;;;;13.49;100.00;98640.38;4912372;29;20048;-96
2023/06/01 02:42:25;;;;;;;25.55;10.27;;;;;;;13.56;100.00;98640.03;4912502;29;20048;-95
2023/06/01 02:44:51;;;;;;;26.85;9.82;;;;;;;13.70;100.00;98655.50;4911686;29;20052;-95
2023/06/01 02:47:17;;;;;;;27.80;11.07;;;;;;;13.67;100.00;98636.06;4912215;29;20106;-95
2023/06/01 02:49:43;;;;;;;26.90;11.82;;;;;;;13.72;100.00;98642.94;4911590;29;20099;-95
2023/06/01 02:52:10;;;;;;;44.55;11.25;;;;;;;13.83;100.00;98645.16;4912714;29;20096;-96
2023/06/01 02:54:36;;;;;;;28.92;10.90;;;;;;;13.85;100.00;98647.78;4912302;29;20074;-95
2023/06/01 02:57:02;;;;;;;31.02;11.95;;;;;;;14.02;100.00;98674.66;4912380;29;20064;-95
2023/06/01 02:59:28;;;;;;;26.08;10.93;;;;;;;13.86;100.00;98663.75;4912345;29;20055;-95
2023/06/01 03:01:55;;;;;;;21.88;10.32;;;;;;;13.85;100.00;98659.31;4912428;29;20028;-95
2023/06/01 03:04:21;;;;;;;26.98;10.60;;;;;;;13.85;100.00;98659.31;4912277;29;20139;-94
2023/06/01 03:06:48;;;;;;;29.65;11.13;;;;;;;13.81;100.00;98660.38;4912613;29;20096;-94
2023/06/01 03:09:16;;;;;;;26.00;11.70;;;;;;;14.03;100.00;98692.47;4911673;29;20052;-96
2023/06/01 03:11:42;;;;;;;27.83;10.13;;;;;;;13.73;100.00;98665.22;4911300;29;20044;-95
2023/06/01 03:14:08;;;;;;;31.90;11.30;;;;;;;13.61;100.00;98663.03;4910989;29;20124;-93
2023/06/01 03:16:35;;;;;;;30.20;10.40;;;;;;;13.65;100.00;98665.50;4911221;29;20053;-95
2023/06/01 03:19:01;;;;;;;27.92;11.63;;;;;;;13.64;100.00;98661.13;4911349;29;20055;-94
2023/06/01 03:21:27;;;;;;;29.10;11.52;;;;;;;13.60;100.00;98656.81;4911450;29;20138;-95
2023/06/01 03:23:53;;;;;;;25.42;9.65;;;;;;;13.61;100.00;98669.25;4911442;29;20056;-95
2023/06/01 03:26:20;;;;;;;29.38;10.80;;;;;;;13.59;100.00;98670.25;4911239;29;20036;-94
2023/06/01 03:28:46;;;;;;;30.42;11.45;;;;;;;13.58;100.00;98669.38;4911504;29;20048;-95
2023/06/01 03:31:12;;;;;;;38.28;11.77;;;;;;;13.55;100.00;98664.13;4911103;29;20048;-95
2023/06/01 03:33:39;;;;;;;34.63;12.30;;;;;;;13.52;100.00;98665.13;4911724;29;20418;-94
2023/06/01 03:36:06;;;;;;;26.20;10.63;;;;;;;13.65;100.00;98702.06;4911596;29;20051;-95
2023/06/01 03:38:33;;;;;;;29.42;11.88;;;;;;;13.42;100.00;98673.59;4910941;29;20048;-94
2023/06/01 03:41:00;;;;;;;37.78;13.43;;;;;;;13.50;100.00;98684.84;4911626;29;20051;-95
2023/06/01 03:43:27;;;;;;;26.58;10.95;;;;;;;13.37;100.00;98670.25;4911614;29;20052;-96
2023/06/01 03:45:53;;;;;;;38.05;12.68;;;;;;;13.39;100.00;98660.38;4910607;29;20463;-92
2023/06/01 03:48:19;;;;;;;37.10;13.43;;;;;;;13.53;100.00;98682.03;4910164;29;20055;-94
2023/06/01 03:50:46;;;;;;;31.58;12.73;;;;;;;13.68;100.00;98705.44;4909869;29;20098;-95
2023/06/01 03:53:12;;;;;;;27.20;11.73;;;;;;;13.51;100.00;98667.88;4909773;29;20052;-93
2023/06/01 03:55:38;;;;;;;30.42;11.60;;;;;;;13.44;100.00;98667.25;4909523;29;20430;-94
2023/06/01 03:58:04;;;;;;;30.73;12.60;;;;;;;13.36;100.00;98664.03;4910454;29;20048;-95
2023/06/01 04:00:32;;;;;;;29.88;12.35;;;;;;;13.33;100.00;98665.00;4910406;29;20044;-95
2023/06/01 04:03:00;;;;;;;32.58;12.93;;;;;;;13.59;100.00;98699.63;4910265;29;20052;-94
2023/06/01 04:05:26;;;;;;;30.13;12.38;;;;;;;13.47;100.00;98669.81;4909852;29;20080;-94
2023/06/01 04:07:54;;;;;;;34.45;12.98;;;;;;;13.46;100.00;98662.72;4910157;29;20048;-95
2023/06/01 04:10:21;;;;;;;35.38;14.25;;;;;;;13.56;100.00;98668.56;4910004;29;20074;-94
2023/06/01 04:12:48;;;;;;;36.72;13.13;;;;;;;13.66;100.00;98666.38;4909862;29;20048;-95
2023/06/01 04:15:16;;;;;;;26.67;11.30;;;;;;;13.69;100.00;98672.47;4910606;29;20079;-93
2023/06/01 04:17:44;;;;;;;33.33;11.63;;;;;;;13.76;100.00;98659.72;4910639;29;20080;-95
2023/06/01 04:20:12;;;;;;;29.35;10.95;;;;;;;14.05;100.00;98695.94;4910111;29;20053;-94
2023/06/01 04:22:39;;;;;;;27.65;11.52;;;;;;;13.98;100.00;98670.38;4909529;29;20051;-94
2023/06/01 04:25:08;;;;;;;28.48;11.48;;;;;;;14.20;100.00;98685.50;4908800;29;20159;-95
2023/06/01 04:27:37;;;;;;;25.02;10.77;;;;;;;14.30;100.00;98692.19;4908992;29;20398;-95
2023/06/01 04:30:07;;;;;;;24.27;11.30;;;;;;;14.30;100.00;98665.44;4909380;29;20044;-96
2023/06/01 04:32:34;;;;;;;31.98;12.02;;;;;;;14.42;100.00;98662.25;4909158;29;20044;-94
2023/06/01 04:35:06;;;;;;;31.45;13.27;;;;;;;14.43;100.00;98663.09;4908557;29;20044;-95
2023/06/01 04:37:34;;;;;;;28.23;13.50;;;;;;;14.47;100.00;98676.28;4908545;29;20493;-95
2023/06/01 04:40:00;;;;;;;33.88;13.95;;;;;;;14.64;100.00;98682.69;4909393;29;20375;-94
2023/06/01 04:42:26;;;;;;;26.70;11.95;;;;;;;14.59;100.00;98664.16;4909917;29;20048;-95
2023/06/01 04:44:53;;;;;;;26.77;12.05;;;;;;;14.64;100.00;98672.00;4909228;29;20147;-95
2023/06/01 04:47:21;;;;;;;25.77;11.07;;;;;;;14.75;100.00;98680.44;4910137;29;20139;-95
2023/06/01 04:49:47;;;;;;;24.40;10.47;;;;;;;14.94;100.00;98693.81;4910434;29;20048;-94
2023/06/01 04:52:15;;;;;;;24.67;10.68;;;;;;;14.93;100.00;98686.75;4910011;29;20044;-95
2023/06/01 04:54:42;;;;;;;21.33;10.32;;;;;;;14.78;100.00;98693.66;4910333;29;20103;-95
2023/06/01 04:57:08;;;;;;;23.63;11.23;;;;;;;14.83;100.00;98698.81;4910126;29;20058;-95
2023/06/01 04:59:34;;;;;;;26.52;10.30;;;;;;;15.07;100.00;98721.78;4910576;29;20052;-94
2023/06/01 05:02:00;;;;;;;24.27;11.80;;;;;;;15.27;100.00;98685.19;4910973;29;20063;-95
2023/06/01 05:04:26;;;;;;;29.52;11.82;;;;;;;15.39;100.00;98688.09;4910093;29;20048;-95
2023/06/01 05:06:52;;;;;;;29.13;13.15;;;;;;;15.42;100.00;98697.84;4911055;29;20454;-95
2023/06/01 05:09:20;;;;;;;26.58;11.43;;;;;;;15.27;100.00;98683.34;4912134;29;20047;-96
2023/06/01 05:11:46;;;;;;;26.15;11.63;;;;;;;15.20;100.00;98676.53;4912659;29;20079;-95
2023/06/01 05:14:12;;;;;;;31.92;12.80;;;;;;;15.13;100.00;98665.25;4912707;29;20076;-95
2023/06/01 05:16:37;;;;;;;25.70;12.70;;;;;;;15.30;100.00;98666.25;4912325;29;20051;-95
2023/06/01 05:19:04;;;;;;;26.65;11.35;;;;;;;15.89;100.00;98667.84;4912661;29;20052;-95
2023/06/01 05:21:31;;;;;;;23.23;10.80;;;;;;;16.52;100.00;98661.91;4917808;29;20070;-95
2023/06/01 05:23:58;;;;;;;26.92;10.77;;;;;;;17.08;100.00;98667.88;4911367;29;20049;-96
2023/06/01 05:26:26;;;;;;;25.88;11.15;;;;;;;17.48;100.00;98664.75;4896228;29;20057;-95
2023/06/01 05:28:52;;;;;;;;;;;;;;;18.10;100.00;98702.47;4900758;29;20117;-96
2023/06/01 05:31:21;;;;;;;24.52;10.75;;;;;;;17.95;100.00;98688.94;4899817;29;19930;-95
2023/06/01 05:33:47;;;;;;;27.45;11.13;;;;;;;17.64;100.00;98660.25;4898664;29;20055;-94
2023/06/01 05:36:14;;;;;;;25.20;10.88;;;;;;;17.68;100.00;98666.34;4896563;29;20060;-96
2023/06/01 05:38:40;;;;;;;33.67;11.63;;;;;;;17.78;100.00;98668.41;4896715;29;20048;-96
2023/06/01 05:41:06;;;;;;;26.00;11.93;;;;;;;18.16;100.00;98677.88;4900451;29;20041;-95
2023/06/01 05:43:36;;;;;;;22.73;11.23;;;;;;;18.26;100.00;98684.47;4896018;29;20560;-95
2023/06/01 05:46:06;;;;;;;25.15;11.20;;;;;;;18.22;100.00;98677.53;4894471;29;20108;-96
2023/06/01 05:48:32;;;;;;;27.08;11.15;;;;;;;17.96;100.00;98685.31;4900719;29;20400;-96
2023/06/01 05:50:59;;;;;;;32.40;12.10;;;;;;;18.13;100.00;98684.31;4897714;29;20044;-95
2023/06/01 05:53:29;;;;;;;23.30;11.10;;;;;;;18.15;100.00;98682.41;4900117;29;20045;-96
2023/06/01 05:56:01;;;;;;;31.17;12.10;;;;;;;17.97;100.00;98702.31;4895579;29;20053;-95
2023/06/01 05:58:27;;;;;;;28.02;11.85;;;;;;;17.62;100.00;98689.91;4900823;29;20150;-96
2023/06/01 06:00:56;;;;;;;26.88;12.35;;;;;;;17.65;100.00;98716.66;4902301;29;20071;-96
2023/06/01 06:03:22;;;;;;;27.50;12.27;;;;;;;17.62;100.00;98689.06;4900438;29;20053;-96
2023/06/01 06:05:49;;;;;;;24.27;11.55;;;;;;;17.78;100.00;98687.22;4899081;29;20052;-95
2023/06/01 06:08:15;;;;;;;30.45;12.90;;;;;;;17.93;100.00;98700.75;4898766;29;20140;-96
2023/06/01 06:10:42;;;;;;;29.48;12.82;;;;;;;17.84;100.00;98694.09;4899407;29;20055;-96
2023/06/01 06:13:08;;;;;;;31.77;13.55;;;;;;;17.81;100.00;98707.69;4898674;29;20139;-95
2023/06/01 06:15:34;;;;;;;30.90;13.07;;;;;;;17.79;100.00;98696.16;4896967;29;20052;-95
2023/06/01 06:18:02;;;;;;;35.80;13.90;;;;;;;18.14;100.00;98698.66;4895315;29;20049;-95
2023/06/01 06:20:28;;;;;;;31.95;13.63;;;;;;;18.42;100.00;98697.88;4895860;29;20135;-96
2023/06/01 06:22:54;;;;;;;31.60;14.45;;;;;;;18.75;100.00;98710.22;4895409;29;20044;-95
2023/06/01 06:25:21;;;;;;;37.00;14.43;;;;;;;19.23;100.00;98718.94;4891555;29;20061;-96
2023/06/01 06:27:47;;;;;;;37.15;13.77;;;;;;;19.47;100.00;98703.00;4891883;29;20049;-95
2023/06/01 06:30:13;;;;;;;33.42;14.27;;;;;;;19.64;100.00;98718.97;4890677;29;20056;-94
2023/06/01 06:32:39;;;;;;;36.50;13.35;;;;;;;19.78;100.00;98704.63;4889703;29;20060;-95
2023/06/01 06:35:08;;;;;;;36.70;13.35;;;;;;;20.12;100.00;98726.66;4889146;29;20151;-96
2023/06/01 06:37:34;;;;;;;35.60;13.50;;;;;;;20.04;100.00;98716.38;4889198;29;20144;-95
2023/06/01 06:39:59;;;;;;;31.05;13.50;;;;;;;19.93;100.00;98707.25;4888297;29;20072;-95
2023/06/01 06:42:25;;;;;;;27.63;12.93;;;;;;;19.94;100.00;98693.66;4888194;29;20075;-95
2023/06/01 06:44:51;;;;;;;37.67;14.23;;;;;;;20.03;100.00;98693.03;4888046;29;20045;-95
2023/06/01 06:47:19;;;;;;;48.08;14.48;;;;;;;20.25;100.00;98700.56;4887361;29;20048;-95
2023/06/01 06:49:46;;;;;;;42.73;15.10;;;;;;;20.56;100.00;98700.28;4887159;29;20136;-95
2023/06/01 06:52:13;;;;;;;31.50;12.45;;;;;;;20.30;100.00;98684.94;4886167;29;20527;-95
2023/06/01 06:54:40;;;;;;;31.75;12.52;;;;;;;20.55;100.00;98694.03;4886272;29;20053;-93
2023/06/01 06:57:07;;;;;;;30.40;11.10;;;;;;;21.01;100.00;98693.53;4886441;29;20045;-94
2023/06/01 06:59:33;;;;;;;27.25;10.48;;;;;;;21.48;100.00;98704.66;4886112;29;20053;-94
2023/06/01 07:02:00;;;;;;;27.13;11.02;;;;;;;21.38;100.00;98704.41;4885382;29;20045;-95
2023/06/01 07:04:27;;;;;;;35.75;13.27;;;;;;;21.42;100.00;98726.75;4885340;29;20112;-95
2023/06/01 07:06:53;;;;;;;33.22;12.38;;;;;;;21.26;100.00;98699.91;4885756;29;20048;-94
2023/06/01 07:09:21;;;;;;;33.15;13.35;;;;;;;21.33;100.00;98703.88;4885252;29;20087;-92
2023/06/01 07:11:47;;;;;;;30.85;11.80;;;;;;;21.47;100.00;98722.75;4884875;29;20037;-94
2023/06/01 07:14:13;;;;;;;32.85;11.82;;;;;;;21.60;100.00;98708.28;4885267;29;20115;-95
2023/06/01 07:16:39;;;;;;;30.60;12.43;;;;;;;21.74;100.00;98714.41;4885228;29;20139;-96
2023/06/01 07:19:07;;;;;;;27.08;10.90;;;;;;;21.92;100.00;98709.50;4885265;29;20052;-95
2023/06/01 07:21:32;;;;;;;34.42;13.13;;;;;;;22.03;100.00;98722.22;4885234;29;20076;-93
2023/06/01 07:23:58;;;;;;;27.23;11.63;;;;;;;22.15;100.00;98721.28;4884681;29;20087;-95
2023/06/01 07:26:28;;;;;;;25.85;12.02;;;;;;;21.98;98.32;98701.88;4885134;29;20096;-92
2023/06/01 07:28:56;;;;;;;24.35;11.75;;;;;;;22.09;97.80;98716.34;4885025;29;20505;-93
2023/06/01 07:31:22;;;;;;;33.10;12.60;;;;;;;22.26;95.44;98689.88;4884458;29;20048;-93
2023/06/01 07:33:48;;;;;;;25.95;11.00;;;;;;;22.47;91.87;98698.19;4884299;29;20139;-94
2023/06/01 07:36:14;;;;;;;25.75;11.48;;;;;;;22.32;93.36;98692.09;4884405;29;20075;-94
2023/06/01 07:38:41;;;;;;;28.10;12.80;;;;;;;21.81;92.34;98711.25;4884117;29;20048;-94
2023/06/01 07:41:08;;;;;;;25.33;10.68;;;;;;;21.46;95.91;98702.06;4884078;29;20135;-94
2023/06/01 07:43:38;;;;;;;26.40;11.88;;;;;;;21.40;99.39;98715.97;4898010;29;20515;-92
2023/06/01 07:46:04;;;;;;;26.05;11.18;;;;;;;21.67;100.00;98696.06;4904014;29;20048;-94
2023/06/01 07:48:35;;;;;;;29.83;11.27;;;;;;;22.01;95.49;98704.34;4902911;29;20050;-93
2023/06/01 07:51:01;;;;;;;32.17;11.60;;;;;;;21.83;94.31;98691.22;4902825;29;20134;-91
2023/06/01 07:53:27;;;;;;;24.58;9.90;;;;;;;21.82;91.79;98694.06;4902569;29;20574;-93
2023/06/01 07:55:53;;;;;;;22.00;9.65;;;;;;;21.75;88.96;98688.22;4902697;29;20086;-93
2023/06/01 07:58:19;;;;;;;17.92;8.45;;;;;;;21.95;84.34;98694.88;4902868;29;20082;-94
2023/06/01 08:00:46;;;;;;;19.25;8.02;;;;;;;22.19;84.09;98666.91;4902507;29;20491;-94
2023/06/01 08:03:12;;;;;;;16.40;8.07;;;;;;;22.59;80.99;98683.69;4902994;29;20058;-93
2023/06/01 08:05:42;;;;;;;16.20;7.80;;;;;;;22.96;78.27;98678.91;4889536;29;20052;-95
2023/06/01 08:08:08;;;;;;;14.35;7.70;;;;;;;23.14;77.26;98654.94;4885250;29;20507;-94
2023/06/01 08:10:35;;;;;;;19.33;8.27;;;;;;;23.32;77.38;98676.16;4857104;29;20056;-95
2023/06/01 08:13:02;;;;;;;17.02;8.57;;;;;;;22.94;79.79;98659.22;4894548;29;20475;-94
2023/06/01 08:15:28;;;;;;;20.20;8.40;;;;;;;23.35;79.08;98671.31;4884026;29;20056;-94
2023/06/01 08:17:56;;;;;;;17.60;8.32;;;;;;;23.53;72.30;98655.41;4883880;29;20048;-93
2023/06/01 08:20:23;;;;;;;15.95;8.90;;;;;;;23.53;70.79;98671.69;4884953;29;20055;-94
2023/06/01 08:22:50;;;;;;;18.48;8.07;;;;;;;23.76;69.07;98680.66;4884849;29;20048;-95
2023/06/01 08:25:17;;;;;;;14.85;8.15;;;;;;;23.06;73.13;98665.53;4884474;29;20082;-94
2023/06/01 08:27:43;;;;;;;15.63;8.18;;;;;;;23.44;76.93;98668.84;4887417;29;20044;-95
2023/06/01 08:30:12;;;;;;;15.55;8.52;;;;;;;23.33;74.16;98651.59;4900273;29;20044;-96
2023/06/01 08:32:38;;;;;;;16.15;8.35;;;;;;;23.26;72.45;98652.22;4904027;29;20046;-95
2023/06/01 08:35:07;;;;;;;16.55;8.68;;;;;;;23.60;77.16;98666.59;4904201;29;20072;-95
2023/06/01 08:37:33;;;;;;;17.30;8.55;;;;;;;23.67;74.43;98681.38;4904191;29;20147;-95
2023/06/01 08:39:59;;;;;;;19.98;8.45;;;;;;;23.81;74.67;98666.69;4902772;29;20052;-95
2023/06/01 08:42:31;;;;;;;17.70;8.55;;;;;;;24.11;74.10;98662.41;4902028;29;20048;-95
2023/06/01 08:44:58;;;;;;;18.13;8.60;;;;;;;24.27;72.08;98660.13;4902894;29;20052;-95
2023/06/01 08:47:25;;;;;;;16.45;8.43;;;;;;;24.49;70.25;98680.91;4902493;29;20048;-94
2023/06/01 08:49:52;;;;;;;22.00;9.05;;;;;;;24.44;67.37;98672.28;4901791;29;20417;-94
2023/06/01 08:52:21;;;;;;;16.65;8.45;;;;;;;23.81;73.58;98666.69;4902770;29;20055;-94
2023/06/01 08:54:47;;;;;;;17.83;9.07;;;;;;;23.96;73.48;98673.59;4902599;29;20155;-93
2023/06/01 08:57:15;;;;;;;18.90;9.32;;;;;;;24.09;68.38;98659.81;4901711;29;20072;-93
2023/06/01 08:59:41;;;;;;;14.95;8.20;;;;;;;24.38;70.54;98662.78;4901756;29;20055;-93
2023/06/01 09:02:09;;;;;;;14.95;7.93;;;;;;;24.68;68.93;98668.44;4902279;29;20151;-94
2023/06/01 09:04:37;;;;;;;15.87;8.23;;;;;;;24.78;70.25;98662.06;4901826;29;20458;-94
2023/06/01 09:07:03;;;;;;;18.35;8.35;;;;;;;23.89;65.81;98644.34;4891665;29;20047;-93
2023/06/01 09:09:32;;;;;;;13.98;8.05;;;;;;;23.98;68.65;98662.56;4901828;29;20040;-94
2023/06/01 09:12:23;;;;;;;16.95;7.97;;;;;;;24.30;70.27;98651.69;4901789;29;20096;-94
2023/06/01 09:14:50;;;;;;;16.65;8.65;;;;;;;24.76;68.00;98672.19;4882901;29;20080;-95
2023/06/01 09:17:22;;;;;;;17.77;9.05;;;;;;;24.75;65.38;98672.38;4890639;29;20047;-94
2023/06/01 09:19:50;;;;;;;16.10;8.15;;;;;;;24.89;67.61;98649.38;4901130;29;20059;-93
2023/06/01 09:22:15;;;;;;;18.33;8.27;;;;;;;25.08;66.82;98654.06;4895565;29;20051;-93
2023/06/01 09:24:55;;;;;;;18.85;8.60;;;;;;;25.34;66.51;98651.75;4882150;29;20056;-94
2023/06/01 09:27:21;;;;;;;15.55;7.95;;;;;;;24.96;63.93;98645.13;4882194;29;20045;-94
2023/06/01 09:29:53;;;;;;;16.38;8.77;;;;;;;24.70;65.55;98637.41;4882973;29;20043;-92
2023/06/01 09:32:21;;;;;;;17.23;8.32;;;;;;;25.13;65.64;98659.94;4865861;29;20526;-94
2023/06/01 09:34:47;;;;;;;15.52;8.63;;;;;;;25.35;64.67;98650.75;4863862;29;20049;-94
2023/06/01 09:37:13;;;;;;;17.63;8.20;;;;;;;25.53;64.63;98634.63;4864079;29;20045;-93
2023/06/01 09:39:40;;;;;;;16.15;8.52;;;;;;;25.50;64.29;98641.19;4873098;29;20131;-93
2023/06/01 09:42:08;;;;;;;20.20;8.30;;;;;;;25.61;64.81;98634.75;4890151;29;20041;-93
2023/06/01 09:44:35;;;;;;;17.45;7.75;;;;;;;25.55;62.57;98624.47;4864014;29;20499;-92
2023/06/01 09:47:02;;;;;;;19.65;8.50;;;;;;;25.58;62.51;98635.91;4863943;29;20568;-94
2023/06/01 09:49:30;;;;;;;14.55;7.50;;;;;;;25.65;60.26;98621.75;4877893;29;20044;-92
2023/06/01 09:52:10;;;;;;;14.87;8.20;;;;;;;24.61;56.32;98649.06;4881977;29;20096;-92
2023/06/01 09:54:37;;;;;;;15.50;7.93;;;;;;;24.33;56.81;98651.44;4884416;29;20049;-93
2023/06/01 09:57:05;;;;;;;14.97;7.10;;;;;;;24.31;57.14;98641.66;4892406;29;20558;-93
2023/06/01 09:59:40;;;;;;;13.77;7.40;;;;;;;24.72;55.67;98639.97;4885936;29;20048;-93
2023/06/01 10:02:10;;;;;;;12.00;6.55;;;;;;;24.98;55.59;98641.28;4885420;29;20499;-93
2023/06/01 10:04:40;;;;;;;16.42;8.23;;;;;;;24.82;55.12;98629.16;4885478;29;20143;-92
2023/06/01 10:07:07;;;;;;;12.55;7.35;;;;;;;25.19;55.10;98626.75;4885283;29;20045;-92
2023/06/01 10:09:38;;;;;;;15.15;7.13;;;;;;;25.48;53.62;98623.28;4876372;29;20048;-94
2023/06/01 10:12:05;;;;;;;14.50;8.35;;;;;;;25.67;53.85;98630.63;4884088;29;20109;-94
2023/06/01 10:14:33;;;;;;;12.43;7.18;;;;;;;25.28;51.42;98616.94;4886405;29;20057;-93
2023/06/01 10:17:00;;;;;;;12.07;6.23;;;;;;;25.57;49.28;98617.88;4890793;29;20402;-93
2023/06/01 10:19:25;;;;;;;12.75;6.43;;;;;;;25.48;49.36;98599.66;4894326;29;20280;-92
2023/06/01 10:21:52;;;;;;;11.13;5.75;;;;;;;25.80;47.38;98613.00;4873186;29;20143;-92
2023/06/01 10:24:18;;;;;;;12.38;6.28;;;;;;;26.02;45.27;98633.72;4879875;29;20056;-92
2023/06/01 10:26:54;;;;;;;14.13;6.78;;;;;;;26.04;44.25;98622.66;4881395;29;20068;-92
2023/06/01 10:29:20;;;;;;;12.45;6.47;;;;;;;25.27;44.99;98628.81;4875824;29;20088;-92
2023/06/01 10:31:48;;;;;;;12.15;6.75;;;;;;;25.37;45.99;98613.38;4894286;29;20036;-92
2023/06/01 10:34:14;;;;;;;11.32;6.78;;;;;;;25.13;46.43;98619.97;4886598;29;20040;-92
2023/06/01 10:37:11;;;;;;;11.73;6.38;;;;;;;25.56;44.24;98627.03;4898747;29;20048;-92
2023/06/01 10:39:37;;;;;;;10.77;5.50;;;;;;;25.91;44.74;98611.19;4897424;29;20041;-93
2023/06/01 10:42:38;;;;;;;10.25;5.55;;;;;;;25.97;40.96;98614.22;4874624;29;20076;-93
2023/06/01 10:45:06;;;;;;;9.45;4.97;;;;;;;25.68;40.98;98607.88;4891087;29;20058;-94
2023/06/01 10:47:47;;;;;;;9.57;4.80;;;;;;;26.26;42.76;98607.88;4904208;29;20044;-93
2023/06/01 10:50:17;;;;;;;11.88;5.97;;;;;;;26.19;39.22;98598.56;4894201;29;20414;-93
2023/06/01 10:52:43;;;;;;;9.45;5.70;;;;;;;26.51;39.91;98600.09;4885319;29;20044;-94
2023/06/01 10:55:23;;;;;;;12.55;5.90;;;;;;;26.73;37.83;98591.59;4871750;29;20047;-93
2023/06/01 10:57:50;;;;;;;9.82;5.93;;;;;;;26.69;37.26;98576.53;4877535;29;20053;-94
2023/06/01 11:00:19;;;;;;;9.20;5.53;;;;;;;26.63;37.90;98564.38;4877694;29;20060;-95
2023/06/01 11:02:52;;;;;;;10.40;6.45;;;;;;;26.22;40.40;98565.59;4889701;29;20119;-95
2023/06/01 11:05:46;;;;;;;12.88;6.10;;;;;;;26.43;42.65;98557.19;4888657;29;20048;-93
2023/06/01 11:08:52;;;;;;;10.68;6.13;;;;;;;26.08;43.14;98560.56;4890438;29;20048;-95
2023/06/01 11:11:20;;;;;;;12.10;6.65;;;;;;;25.44;44.57;98542.88;4833784;29;20049;-95
2023/06/01 11:14:10;;;;;;;10.70;6.47;;;;;;;25.03;46.42;98540.22;4835906;29;20070;-95
2023/06/01 11:16:37;;;;;;;10.45;6.07;;;;;;;24.96;48.62;98558.06;4832830;29;20118;-95
2023/06/01 11:19:06;;;;;;;11.45;5.93;;;;;;;24.81;49.64;98549.44;4832651;29;20563;-95